Aviation Digital Data Service (ADDS)

Output produced by METARs form (1224 UTC 26 March 2019)
found at http://www.aviationweather.gov/metar/data/
 
GQPA 260900Z 32006KT 8000 SCT020CTU 19/07 Q1018
GQPP 261200Z 28012KT 250V310 8000 FEW006 22/15 Q1014 NOSIG